createdAt,value
2022-07-30T00:01:50.275Z,8.60
2022-07-30T00:04:18.907Z,7.90
2022-07-30T00:06:46.682Z,8.50
2022-07-30T00:09:14.485Z,8.23
2022-07-30T00:14:10.668Z,7.45
2022-07-30T00:16:39.226Z,6.60
2022-07-30T00:19:07.094Z,10.20
2022-07-30T00:21:39.134Z,8.00
2022-07-30T00:24:08.800Z,10.77
2022-07-30T00:26:36.880Z,12.43
2022-07-30T00:31:33.695Z,12.45
2022-07-30T00:34:01.163Z,13.70
2022-07-30T00:36:29.004Z,11.90
2022-07-30T00:38:57.051Z,12.40
2022-07-30T00:41:25.636Z,13.80
2022-07-30T00:43:53.555Z,13.07
2022-07-30T00:46:21.966Z,12.50
2022-07-30T00:48:50.408Z,15.90
2022-07-30T00:51:18.545Z,14.45
2022-07-30T00:53:46.103Z,13.68
2022-07-30T00:56:15.454Z,12.13
2022-07-30T00:58:44.523Z,15.18
2022-07-30T01:01:12.654Z,13.32
2022-07-30T01:03:41.029Z,13.52
2022-07-30T01:06:14.146Z,14.48
2022-07-30T01:08:43.598Z,14.10
2022-07-30T01:11:12.570Z,14.27
2022-07-30T01:13:45.037Z,11.20
2022-07-30T01:16:13.178Z,12.00
2022-07-30T01:19:01.474Z,11.05
2022-07-30T01:21:36.675Z,11.65
2022-07-30T01:24:34.046Z,10.43
2022-07-30T01:29:34.613Z,11.50
2022-07-30T01:32:07.372Z,10.48
2022-07-30T01:34:37.514Z,7.65
2022-07-30T01:37:09.119Z,9.75
2022-07-30T01:39:38.669Z,7.22
2022-07-30T01:42:09.198Z,8.07
2022-07-30T01:44:43.157Z,7.78
2022-07-30T01:47:13.345Z,6.40
2022-07-30T01:49:42.349Z,7.15
2022-07-30T01:52:10.777Z,8.13
2022-07-30T01:54:40.523Z,6.57
2022-07-30T01:57:09.807Z,8.38
2022-07-30T01:59:43.431Z,6.00
2022-07-30T02:02:12.937Z,5.93
2022-07-30T02:04:46.287Z,7.22
2022-07-30T02:07:39.010Z,7.93
2022-07-30T02:10:32.670Z,4.82
2022-07-30T02:13:04.809Z,4.40
2022-07-30T02:15:38.908Z,5.45
2022-07-30T02:18:28.011Z,3.78
2022-07-30T02:21:07.373Z,5.22
2022-07-30T02:23:44.629Z,5.82
2022-07-30T02:26:21.092Z,5.13
2022-07-30T02:28:52.802Z,4.90
2022-07-30T02:31:23.512Z,5.22
2022-07-30T02:33:56.671Z,7.78
2022-07-30T02:36:27.813Z,5.18
2022-07-30T02:38:58.559Z,4.63
2022-07-30T02:41:29.687Z,5.25
2022-07-30T02:44:00.503Z,6.13
2022-07-30T02:46:29.766Z,4.88
2022-07-30T02:49:18.777Z,5.97
2022-07-30T02:51:48.362Z,4.47
2022-07-30T02:54:18.545Z,4.18
2022-07-30T02:56:51.500Z,3.67
2022-07-30T02:59:23.178Z,5.43
2022-07-30T03:01:52.247Z,6.38
2022-07-30T03:04:22.062Z,4.22
2022-07-30T03:06:50.071Z,3.70
2022-07-30T03:09:18.616Z,4.22
2022-07-30T03:11:49.439Z,3.13
2022-07-30T03:14:17.623Z,5.18
2022-07-30T03:16:51.861Z,3.22
2022-07-30T03:19:23.230Z,4.95
2022-07-30T03:21:53.934Z,4.97
2022-07-30T03:24:26.205Z,5.32
2022-07-30T03:26:55.547Z,4.65
2022-07-30T03:29:28.915Z,3.72
2022-07-30T03:31:57.875Z,3.92
2022-07-30T03:34:28.755Z,3.97
2022-07-30T03:37:30.259Z,5.10
2022-07-30T03:39:59.730Z,5.78
2022-07-30T03:42:28.590Z,7.57
2022-07-30T03:44:57.516Z,5.53
2022-07-30T03:47:27.091Z,4.57
2022-07-30T03:49:56.179Z,6.20
2022-07-30T03:52:23.888Z,9.00
2022-07-30T03:57:48.156Z,7.07
2022-07-30T04:00:18.279Z,7.70
2022-07-30T04:02:50.778Z,9.30
2022-07-30T04:05:41.484Z,6.82
2022-07-30T04:10:40.206Z,7.78
2022-07-30T04:13:16.920Z,6.80
2022-07-30T04:16:39.756Z,8.65
2022-07-30T04:19:19.261Z,7.13
2022-07-30T04:21:49.560Z,8.98
2022-07-30T04:24:19.038Z,7.30
2022-07-30T04:26:48.954Z,6.97
2022-07-30T04:29:24.524Z,6.40
2022-07-30T04:31:55.093Z,12.82
2022-07-30T04:34:34.820Z,6.78
2022-07-30T04:37:05.626Z,7.43
2022-07-30T04:39:33.766Z,7.78
2022-07-30T04:42:02.427Z,7.97
2022-07-30T04:44:39.542Z,8.50
2022-07-30T04:47:25.964Z,8.88
2022-07-30T04:50:13.564Z,8.02
2022-07-30T04:52:43.266Z,6.40
2022-07-30T04:55:14.613Z,6.45
2022-07-30T04:57:48.628Z,9.88
2022-07-30T05:00:17.624Z,9.18
2022-07-30T05:02:47.222Z,6.13
2022-07-30T05:05:17.715Z,6.95
2022-07-30T05:10:38.145Z,7.72
2022-07-30T05:13:11.738Z,10.18
2022-07-30T05:15:44.870Z,7.63
2022-07-30T05:18:14.379Z,8.98
2022-07-30T05:20:45.448Z,7.90
2022-07-30T05:23:34.005Z,11.60
2022-07-30T05:26:22.401Z,7.43
2022-07-30T05:28:57.279Z,10.35
2022-07-30T05:31:51.163Z,7.75
2022-07-30T05:34:20.551Z,6.15
2022-07-30T05:36:48.458Z,6.88
2022-07-30T05:39:18.652Z,6.60
2022-07-30T05:42:04.972Z,7.03
2022-07-30T05:44:47.001Z,8.10
2022-07-30T05:47:14.717Z,7.20
2022-07-30T05:49:42.401Z,9.07
2022-07-30T05:52:15.375Z,7.95
2022-07-30T05:54:44.387Z,6.53
2022-07-30T05:57:31.827Z,7.97
2022-07-30T06:00:00.801Z,7.07
2022-07-30T06:02:45.007Z,8.40
2022-07-30T06:05:38.995Z,5.88
2022-07-30T06:08:07.821Z,8.02
2022-07-30T06:10:36.043Z,5.85
2022-07-30T06:13:04.156Z,6.10
2022-07-30T06:15:32.534Z,8.10
2022-07-30T06:18:02.334Z,11.60
2022-07-30T06:20:54.916Z,5.78
2022-07-30T06:26:10.891Z,7.95
2022-07-30T06:28:41.135Z,8.48
2022-07-30T06:31:29.003Z,8.75
2022-07-30T06:36:26.567Z,6.78
2022-07-30T06:39:02.256Z,6.55
2022-07-30T06:41:44.318Z,8.68
2022-07-30T06:44:16.203Z,6.88
2022-07-30T06:47:07.486Z,7.13
2022-07-30T06:49:37.690Z,7.90
2022-07-30T06:52:06.892Z,9.70
2022-07-30T06:54:35.484Z,16.55
2022-07-30T06:57:13.980Z,6.72
2022-07-30T06:59:55.986Z,9.70
2022-07-30T07:02:42.777Z,8.73
2022-07-30T07:05:13.901Z,6.93
2022-07-30T07:07:56.536Z,13.10
2022-07-30T07:10:28.014Z,8.18
2022-07-30T07:13:05.154Z,9.63
2022-07-30T07:15:37.688Z,7.00
2022-07-30T07:18:09.948Z,9.63
2022-07-30T07:20:40.099Z,7.30
2022-07-30T07:23:12.027Z,9.32
2022-07-30T07:25:41.763Z,7.88
2022-07-30T07:28:12.175Z,6.82
2022-07-30T07:30:44.461Z,6.15
2022-07-30T07:33:15.530Z,7.15
2022-07-30T07:35:49.240Z,7.78
2022-07-30T07:38:30.923Z,6.72
2022-07-30T07:40:59.673Z,5.38
2022-07-30T07:43:29.173Z,5.28
2022-07-30T07:45:59.690Z,5.25
2022-07-30T07:48:30.895Z,5.75
2022-07-30T07:51:09.623Z,5.03
2022-07-30T07:53:38.482Z,5.50
2022-07-30T07:56:31.197Z,5.40
2022-07-30T07:59:01.269Z,6.38
2022-07-30T08:01:30.375Z,4.93
2022-07-30T08:04:24.439Z,4.30
2022-07-30T08:07:19.705Z,7.20
2022-07-30T08:10:16.284Z,4.70
2022-07-30T08:13:04.292Z,6.07
2022-07-30T08:15:53.144Z,4.05
2022-07-30T08:18:29.735Z,4.07
2022-07-30T08:21:19.736Z,3.42
2022-07-30T08:23:48.015Z,4.40
2022-07-30T08:26:18.021Z,3.83
2022-07-30T08:28:45.917Z,4.30
2022-07-30T08:31:14.277Z,3.13
2022-07-30T08:33:42.176Z,3.38
2022-07-30T08:36:10.331Z,3.00
2022-07-30T08:38:39.876Z,4.72
2022-07-30T08:41:08.839Z,4.38
2022-07-30T08:43:37.647Z,3.88
2022-07-30T08:46:14.284Z,2.83
2022-07-30T08:48:55.070Z,4.00
2022-07-30T08:51:23.782Z,2.67
2022-07-30T08:54:30.035Z,7.03
2022-07-30T08:59:59.523Z,2.60
2022-07-30T09:02:15.040Z,2.28
2022-07-30T09:05:00.913Z,3.57
2022-07-30T09:07:29.456Z,3.28
2022-07-30T09:11:26.470Z,3.30
2022-07-30T09:13:54.393Z,5.75
2022-07-30T09:16:27.411Z,3.10
2022-07-30T09:18:58.102Z,4.03
2022-07-30T09:21:29.180Z,3.80
2022-07-30T09:24:48.581Z,4.28
2022-07-30T09:27:51.309Z,5.72
2022-07-30T09:30:52.856Z,2.95
2022-07-30T09:33:47.512Z,5.43
2022-07-30T09:36:34.364Z,2.78
2022-07-30T09:39:42.502Z,3.08
2022-07-30T09:42:29.060Z,2.97
2022-07-30T09:45:08.300Z,3.03
2022-07-30T09:47:42.868Z,3.10
2022-07-30T09:50:13.476Z,2.40
2022-07-30T09:53:11.884Z,4.70
2022-07-30T09:55:43.141Z,1.67
2022-07-30T09:58:16.610Z,1.58
2022-07-30T10:00:59.604Z,1.77
2022-07-30T10:03:47.896Z,1.35
2022-07-30T10:06:54.843Z,1.90
2022-07-30T10:09:37.471Z,2.88
2022-07-30T10:12:11.272Z,0.68
2022-07-30T10:14:45.759Z,1.17
2022-07-30T10:17:17.521Z,1.15
2022-07-30T10:20:18.414Z,2.05
2022-07-30T10:23:09.219Z,0.60
2022-07-30T10:25:48.946Z,0.85
2022-07-30T10:28:43.523Z,0.50
2022-07-30T10:31:49.412Z,0.77
2022-07-30T10:34:01.246Z,0.85
2022-07-30T10:36:29.959Z,2.20
2022-07-30T10:38:57.914Z,0.50
2022-07-30T10:41:42.802Z,0.65
2022-07-30T10:44:49.412Z,1.25
2022-07-30T10:47:19.265Z,0.60
2022-07-30T10:50:11.833Z,1.35
2022-07-30T10:52:50.622Z,0.90
2022-07-30T10:55:37.218Z,1.33
2022-07-30T10:58:07.031Z,0.85
2022-07-30T11:00:55.915Z,1.05
2022-07-30T11:03:41.042Z,1.15
2022-07-30T11:06:15.844Z,1.00
2022-07-30T11:08:48.039Z,1.70
2022-07-30T11:12:01.496Z,1.10
2022-07-30T11:14:10.704Z,1.40
2022-07-30T11:16:39.389Z,0.95
2022-07-30T11:19:55.317Z,0.90
2022-07-30T11:22:38.947Z,1.40
2022-07-30T11:25:50.271Z,0.82
2022-07-30T11:28:40.023Z,1.35
2022-07-30T11:31:54.936Z,1.85
2022-07-30T11:34:19.618Z,1.40
2022-07-30T11:37:18.390Z,1.60
2022-07-30T11:40:06.095Z,1.20
2022-07-30T11:42:39.371Z,2.65
2022-07-30T11:45:17.169Z,2.83
2022-07-30T11:47:47.981Z,1.65
2022-07-30T11:50:23.901Z,2.53
2022-07-30T11:53:12.900Z,1.42
2022-07-30T11:55:44.114Z,1.63
2022-07-30T11:58:26.723Z,3.80
2022-07-30T12:00:57.614Z,3.42
2022-07-30T12:03:30.081Z,2.10
2022-07-30T12:06:17.975Z,3.35
2022-07-30T12:08:58.217Z,2.17
2022-07-30T12:11:33.368Z,1.60
2022-07-30T12:14:02.209Z,1.58
2022-07-30T12:16:31.779Z,2.88
2022-07-30T12:19:06.108Z,1.48
2022-07-30T12:21:34.626Z,1.38
2022-07-30T12:24:10.332Z,2.25
2022-07-30T12:26:38.099Z,2.03
2022-07-30T12:29:10.172Z,4.57
2022-07-30T12:31:40.317Z,1.55
2022-07-30T12:34:26.057Z,2.30
2022-07-30T12:36:54.626Z,1.40
2022-07-30T12:39:24.740Z,2.42
2022-07-30T12:41:56.197Z,2.75
2022-07-30T12:44:42.197Z,2.25
2022-07-30T12:47:23.986Z,2.53
2022-07-30T12:49:53.736Z,2.63
2022-07-30T12:52:36.156Z,3.28
2022-07-30T12:55:07.357Z,4.07
2022-07-30T12:57:55.676Z,2.67
2022-07-30T13:00:25.742Z,2.38
2022-07-30T13:02:54.959Z,3.33
2022-07-30T13:06:02.117Z,3.67
2022-07-30T13:08:58.357Z,5.00
2022-07-30T13:11:37.699Z,2.28
2022-07-30T13:14:05.641Z,4.60
2022-07-30T13:16:36.144Z,3.42
2022-07-30T13:19:05.590Z,2.85
2022-07-30T13:21:35.407Z,3.63
2022-07-30T13:24:04.334Z,3.55
2022-07-30T13:26:33.986Z,4.40
2022-07-30T13:29:03.499Z,2.65
2022-07-30T13:31:42.944Z,3.35
2022-07-30T13:34:41.078Z,3.55
2022-07-30T13:37:13.181Z,2.10
2022-07-30T13:39:43.924Z,3.92
2022-07-30T13:42:11.559Z,4.57
2022-07-30T13:44:39.242Z,3.38
2022-07-30T13:49:39.122Z,3.67
2022-07-30T13:52:06.779Z,3.88
2022-07-30T13:57:02.573Z,5.75
2022-07-30T13:59:30.447Z,6.07
2022-07-30T14:01:58.338Z,3.65
2022-07-30T14:04:26.066Z,3.38
2022-07-30T14:06:53.837Z,2.85
2022-07-30T14:09:22.522Z,3.40
2022-07-30T14:11:50.370Z,6.03
2022-07-30T14:19:23.152Z,4.85
2022-07-30T14:21:53.993Z,3.15
2022-07-30T14:24:24.617Z,4.43
2022-07-30T14:26:57.391Z,5.13
2022-07-30T14:29:27.226Z,4.53
2022-07-30T14:31:56.089Z,3.25
2022-07-30T14:34:24.084Z,3.67
2022-07-30T14:36:51.731Z,4.47
2022-07-30T14:39:20.685Z,3.88
2022-07-30T14:41:48.920Z,5.65
2022-07-30T14:44:24.422Z,4.30
2022-07-30T14:49:24.620Z,3.22
2022-07-30T14:51:53.383Z,5.80
2022-07-30T14:56:50.403Z,4.55
2022-07-30T14:59:19.687Z,3.50
2022-07-30T15:04:17.186Z,3.20
2022-07-30T15:06:45.087Z,2.63
2022-07-30T15:09:13.041Z,4.85
2022-07-30T15:12:04.387Z,3.58
2022-07-30T15:14:32.145Z,3.42
2022-07-30T15:17:04.139Z,3.63
2022-07-30T15:19:33.116Z,2.97
2022-07-30T15:22:02.822Z,4.18
2022-07-30T15:24:32.495Z,3.25
2022-07-30T15:27:00.322Z,3.60
2022-07-30T15:29:30.239Z,4.68
2022-07-30T15:32:01.011Z,4.47
2022-07-30T15:34:34.581Z,3.50
2022-07-30T15:37:03.418Z,3.72
2022-07-30T15:39:33.092Z,3.20
2022-07-30T15:42:02.343Z,3.08
2022-07-30T15:44:30.842Z,3.40
2022-07-30T15:46:59.406Z,3.33
2022-07-30T15:49:28.109Z,3.85
2022-07-30T15:51:56.080Z,4.18
2022-07-30T15:54:25.069Z,3.78
2022-07-30T15:56:54.150Z,4.38
2022-07-30T15:59:29.969Z,4.28
2022-07-30T16:01:58.616Z,4.55
2022-07-30T16:04:31.699Z,4.88
2022-07-30T16:07:03.415Z,4.43
2022-07-30T16:09:31.144Z,4.93
2022-07-30T16:14:27.351Z,3.40
2022-07-30T16:20:33.559Z,4.95
2022-07-30T16:23:10.409Z,4.57
2022-07-30T16:25:40.672Z,4.75
2022-07-30T16:28:08.311Z,6.60
2022-07-30T16:44:50.303Z,6.00
2022-07-30T16:49:45.390Z,6.63
2022-07-30T16:52:13.529Z,5.47
2022-07-30T16:54:41.169Z,6.93
2022-07-30T16:57:10.732Z,7.72
2022-07-30T16:59:43.555Z,5.75
2022-07-30T17:02:12.574Z,6.85
2022-07-30T17:04:41.567Z,6.45
2022-07-30T17:07:09.334Z,4.95
2022-07-30T17:09:37.148Z,5.53
2022-07-30T17:12:12.281Z,8.25
2022-07-30T17:14:43.479Z,5.00
2022-07-30T17:17:14.551Z,6.03
2022-07-30T17:19:43.571Z,5.15
2022-07-30T17:22:12.038Z,5.30
2022-07-30T17:24:40.190Z,6.07
2022-07-30T17:27:08.333Z,6.85
2022-07-30T17:29:38.769Z,5.68
2022-07-30T17:34:53.073Z,7.32
2022-07-30T17:37:21.783Z,5.95
2022-07-30T17:40:26.912Z,4.97
2022-07-30T17:42:39.871Z,7.03
2022-07-30T17:45:08.544Z,5.82
2022-07-30T17:47:40.766Z,6.40
2022-07-30T17:50:10.628Z,7.68
2022-07-30T17:52:41.172Z,5.40
2022-07-30T17:55:11.464Z,8.18
2022-07-30T17:57:39.971Z,7.55
2022-07-30T18:00:09.358Z,5.80
2022-07-30T18:02:38.020Z,6.82
2022-07-30T18:05:06.361Z,6.32
2022-07-30T18:07:35.623Z,9.10
2022-07-30T18:10:04.024Z,6.70
2022-07-30T18:12:31.744Z,6.45
2022-07-30T18:15:01.525Z,8.63
2022-07-30T18:17:29.690Z,5.93
2022-07-30T18:19:57.441Z,6.88
2022-07-30T18:22:29.240Z,7.88
2022-07-30T18:25:00.343Z,9.35
2022-07-30T18:27:28.428Z,7.63
2022-07-30T18:32:24.750Z,9.48
2022-07-30T18:34:52.534Z,8.02
2022-07-30T18:39:55.007Z,6.53
2022-07-30T18:42:27.628Z,7.15
2022-07-30T18:45:05.791Z,7.60
2022-07-30T18:47:34.006Z,7.05
2022-07-30T18:50:02.073Z,8.25
2022-07-30T18:52:29.736Z,8.85
2022-07-30T18:54:57.446Z,7.30
2022-07-30T18:59:53.088Z,11.25
2022-07-30T19:04:48.210Z,8.38
2022-07-30T19:07:15.870Z,8.38
2022-07-30T19:09:43.806Z,11.90
2022-07-30T19:14:40.750Z,10.75
2022-07-30T19:17:14.085Z,8.63
2022-07-30T19:19:43.710Z,11.25
2022-07-30T19:22:13.784Z,11.65
2022-07-30T19:24:41.492Z,10.45
2022-07-30T19:27:13.988Z,8.52
2022-07-30T19:29:42.285Z,8.45
2022-07-30T19:34:37.447Z,8.52
2022-07-30T19:37:05.069Z,7.05
2022-07-30T19:39:35.069Z,9.30
2022-07-30T19:42:04.026Z,11.57
2022-07-30T19:44:32.517Z,7.00
2022-07-30T19:49:29.528Z,8.52
2022-07-30T19:52:10.041Z,8.43
2022-07-30T19:54:46.147Z,7.25
2022-07-30T19:57:14.695Z,6.93
2022-07-30T19:59:59.892Z,9.32
2022-07-30T20:02:40.443Z,9.32
2022-07-30T20:05:11.143Z,7.75
2022-07-30T20:07:40.045Z,6.45
2022-07-30T20:10:11.221Z,8.20
2022-07-30T20:12:42.139Z,6.90
2022-07-30T20:15:13.976Z,5.97
2022-07-30T20:17:42.866Z,7.20
2022-07-30T20:20:11.643Z,5.75
2022-07-30T20:22:39.435Z,7.63
2022-07-30T20:25:09.558Z,7.53
2022-07-30T20:27:40.501Z,7.15
2022-07-30T20:30:10.378Z,5.47
2022-07-30T20:32:43.537Z,5.85
2022-07-30T20:35:14.577Z,7.72
2022-07-30T20:37:55.590Z,6.95
2022-07-30T20:40:26.804Z,5.40
2022-07-30T20:42:55.375Z,6.30
2022-07-30T20:45:24.920Z,7.22
2022-07-30T20:47:57.477Z,6.20
2022-07-30T20:50:30.385Z,7.80
2022-07-30T20:52:59.961Z,6.85
2022-07-30T20:55:28.970Z,6.50
2022-07-30T20:58:08.898Z,8.60
2022-07-30T21:00:49.898Z,5.95
2022-07-30T21:03:22.397Z,5.55
2022-07-30T21:05:51.171Z,7.38
2022-07-30T21:08:21.369Z,5.18
2022-07-30T21:10:55.211Z,5.25
2022-07-30T21:13:24.939Z,6.90
2022-07-30T21:16:01.977Z,8.63
2022-07-30T21:18:31.790Z,6.68
2022-07-30T21:21:05.444Z,5.18
2022-07-30T21:23:34.530Z,7.80
2022-07-30T21:26:13.284Z,6.10
2022-07-30T21:28:43.146Z,6.72
2022-07-30T21:31:14.650Z,6.72
2022-07-30T21:33:44.142Z,5.72
2022-07-30T21:36:13.344Z,7.57
2022-07-30T21:38:44.233Z,6.55
2022-07-30T21:41:13.823Z,7.68
2022-07-30T21:43:44.115Z,6.15
2022-07-30T21:46:12.992Z,6.60
2022-07-30T21:48:43.311Z,5.85
2022-07-30T21:51:12.137Z,7.20
2022-07-30T21:53:44.822Z,6.28
2022-07-30T21:56:15.872Z,7.25
2022-07-30T21:58:45.143Z,6.50
2022-07-30T22:01:18.060Z,5.25
2022-07-30T22:04:07.821Z,6.45
2022-07-30T22:06:38.226Z,6.10
2022-07-30T22:09:19.264Z,5.53
2022-07-30T22:11:56.697Z,5.07
2022-07-30T22:14:29.278Z,5.57
2022-07-30T22:16:57.483Z,5.65
2022-07-30T22:19:26.072Z,6.80
2022-07-30T22:21:53.848Z,5.88
2022-07-30T22:24:29.329Z,8.18
2022-07-30T22:27:10.694Z,6.73
2022-07-30T22:29:43.471Z,6.70
2022-07-30T22:32:12.216Z,7.57
2022-07-30T22:34:40.553Z,5.68
2022-07-30T22:37:12.459Z,5.38
2022-07-30T22:39:50.182Z,7.00
2022-07-30T22:42:24.418Z,9.05
2022-07-30T22:44:55.491Z,7.70
2022-07-30T22:47:50.613Z,6.82
2022-07-30T22:50:12.080Z,7.53
2022-07-30T22:52:52.615Z,8.35
2022-07-30T22:55:27.335Z,7.38
2022-07-30T22:57:55.828Z,6.57
2022-07-30T23:00:27.702Z,7.43
2022-07-30T23:02:56.957Z,8.75
2022-07-30T23:05:25.579Z,7.22
2022-07-30T23:07:53.988Z,7.15
2022-07-30T23:10:21.861Z,7.88
2022-07-30T23:12:52.974Z,6.45
2022-07-30T23:15:22.476Z,11.50
2022-07-30T23:17:50.652Z,7.72
2022-07-30T23:20:20.670Z,6.57
2022-07-30T23:22:49.079Z,7.95
2022-07-30T23:25:17.417Z,9.07
2022-07-30T23:27:46.843Z,7.90
2022-07-30T23:30:15.144Z,6.05
2022-07-30T23:32:43.100Z,6.55
2022-07-30T23:35:11.750Z,8.75
2022-07-30T23:40:19.914Z,6.40
2022-07-30T23:42:50.883Z,6.30
2022-07-30T23:45:19.100Z,6.18
2022-07-30T23:48:00.943Z,5.68
2022-07-30T23:50:33.367Z,7.32
2022-07-30T23:53:02.985Z,7.22
2022-07-30T23:55:32.000Z,7.65
2022-07-30T23:58:00.354Z,5.97
